createdAt,value
2023-03-14T00:01:18.039Z,68.00
2023-03-14T00:03:45.057Z,68.00
2023-03-14T00:06:12.584Z,68.00
2023-03-14T00:08:39.375Z,67.90
2023-03-14T00:11:14.512Z,67.90
2023-03-14T00:13:41.499Z,67.80
2023-03-14T00:16:11.388Z,67.80
2023-03-14T00:18:38.122Z,67.80
2023-03-14T00:21:06.964Z,67.70
2023-03-14T00:23:35.227Z,67.80
2023-03-14T00:26:07.892Z,67.90
2023-03-14T00:28:35.120Z,68.10
2023-03-14T00:31:07.011Z,68.30
2023-03-14T00:33:34.504Z,68.20
2023-03-14T00:36:06.686Z,68.20
2023-03-14T00:38:34.243Z,68.20
2023-03-14T00:41:04.998Z,68.20
2023-03-14T00:43:31.678Z,68.20
2023-03-14T00:45:58.340Z,68.60
2023-03-14T00:48:27.525Z,68.20
2023-03-14T00:50:54.169Z,68.20
2023-03-14T00:53:20.875Z,68.20
2023-03-14T00:55:48.060Z,68.10
2023-03-14T00:58:16.383Z,68.10
2023-03-14T01:00:44.118Z,68.10
2023-03-14T01:03:13.473Z,68.30
2023-03-14T01:05:40.935Z,68.20
2023-03-14T01:08:09.777Z,68.20
2023-03-14T01:10:39.762Z,68.30
2023-03-14T01:13:06.506Z,68.30
2023-03-14T01:15:34.596Z,68.30
2023-03-14T01:18:02.476Z,68.40
2023-03-14T01:20:29.188Z,68.10
2023-03-14T01:22:55.914Z,68.30
2023-03-14T01:25:23.223Z,68.60
2023-03-14T01:27:50.300Z,68.40
2023-03-14T01:30:17.057Z,68.60
2023-03-14T01:32:44.748Z,68.50
2023-03-14T01:35:11.545Z,68.80
2023-03-14T01:37:39.048Z,68.60
2023-03-14T01:40:11.084Z,68.70
2023-03-14T01:42:37.713Z,68.60
2023-03-14T01:45:04.645Z,68.70
2023-03-14T01:47:31.651Z,68.60
2023-03-14T01:50:11.295Z,69.20
2023-03-14T01:52:49.485Z,69.00
2023-03-14T01:55:21.068Z,69.00
2023-03-14T01:57:54.042Z,68.90
2023-03-14T02:00:24.054Z,69.50
2023-03-14T02:02:52.584Z,69.10
2023-03-14T02:05:25.481Z,69.20
2023-03-14T02:08:07.498Z,69.50
2023-03-14T02:10:46.534Z,69.20
2023-03-14T02:13:16.623Z,69.10
2023-03-14T02:16:03.811Z,69.10
2023-03-14T02:18:43.662Z,69.40
2023-03-14T02:21:35.819Z,69.30
2023-03-14T02:24:10.852Z,69.80
2023-03-14T02:27:11.962Z,69.30
2023-03-14T02:29:58.995Z,70.00
2023-03-14T02:32:28.095Z,69.30
2023-03-14T02:34:58.512Z,69.90
2023-03-14T02:37:37.719Z,69.60
2023-03-14T02:40:06.050Z,69.70
2023-03-14T02:42:34.243Z,70.10
2023-03-14T02:45:08.799Z,70.00
2023-03-14T02:47:43.853Z,69.60
2023-03-14T02:50:15.516Z,69.80
2023-03-14T02:52:42.281Z,70.10
2023-03-14T02:55:09.617Z,69.80
2023-03-14T02:57:39.052Z,70.10
2023-03-14T03:00:06.371Z,69.70
2023-03-14T03:02:36.221Z,69.90
2023-03-14T03:05:02.989Z,69.40
2023-03-14T03:07:29.879Z,69.50
2023-03-14T03:09:57.606Z,69.40
2023-03-14T03:12:24.547Z,69.50
2023-03-14T03:14:51.219Z,69.50
2023-03-14T03:17:18.194Z,70.30
2023-03-14T03:19:44.919Z,69.90
2023-03-14T03:22:11.982Z,69.80
2023-03-14T03:24:41.245Z,70.30
2023-03-14T03:27:07.916Z,70.50
2023-03-14T03:29:35.027Z,70.60
2023-03-14T03:32:01.822Z,70.60
2023-03-14T03:34:28.963Z,70.10
2023-03-14T03:37:00.049Z,70.60
2023-03-14T03:39:29.458Z,70.00
2023-03-14T03:41:57.034Z,70.60
2023-03-14T03:44:23.867Z,70.60
2023-03-14T03:46:52.030Z,70.50
2023-03-14T03:49:18.851Z,70.60
2023-03-14T03:51:45.600Z,70.30
2023-03-14T03:54:12.438Z,70.60
2023-03-14T03:56:39.307Z,70.60
2023-03-14T03:59:06.854Z,70.90
2023-03-14T04:01:33.497Z,70.80
2023-03-14T04:04:00.578Z,70.50
2023-03-14T04:06:27.956Z,70.80
2023-03-14T04:08:58.066Z,70.70
2023-03-14T04:11:34.261Z,70.40
2023-03-14T04:14:11.661Z,70.80
2023-03-14T04:16:39.166Z,70.70
2023-03-14T04:19:11.631Z,70.60
2023-03-14T04:21:41.500Z,70.30
2023-03-14T04:24:10.518Z,70.70
2023-03-14T04:26:37.294Z,70.50
2023-03-14T04:29:04.315Z,70.80
2023-03-14T04:31:31.573Z,70.70
2023-03-14T04:33:58.264Z,70.80
2023-03-14T04:36:40.132Z,70.80
2023-03-14T04:39:10.368Z,70.80
2023-03-14T04:41:41.298Z,70.60
2023-03-14T04:44:10.673Z,70.80
2023-03-14T04:46:37.478Z,70.70
2023-03-14T04:49:06.711Z,70.80
2023-03-14T04:51:34.057Z,70.80
2023-03-14T04:54:01.006Z,70.60
2023-03-14T04:56:28.623Z,70.50
2023-03-14T04:58:55.871Z,70.50
2023-03-14T05:01:22.787Z,70.90
2023-03-14T05:04:02.413Z,70.80
2023-03-14T05:06:40.690Z,70.70
2023-03-14T05:09:13.280Z,70.90
2023-03-14T05:11:58.660Z,70.80
2023-03-14T05:14:32.062Z,70.20
2023-03-14T05:17:17.578Z,70.80
2023-03-14T05:19:55.870Z,70.50
2023-03-14T05:22:31.789Z,70.70
2023-03-14T05:25:09.366Z,70.30
2023-03-14T05:27:47.794Z,70.90
2023-03-14T05:30:34.677Z,70.40
2023-03-14T05:33:20.151Z,70.40
2023-03-14T05:35:59.732Z,70.30
2023-03-14T05:38:45.107Z,70.80
2023-03-14T05:41:30.430Z,70.30
2023-03-14T05:43:57.099Z,70.70
2023-03-14T05:46:55.787Z,70.60
2023-03-14T05:49:35.694Z,70.70
2023-03-14T05:52:21.068Z,70.90
2023-03-14T05:55:06.819Z,70.70
2023-03-14T05:58:08.692Z,70.70
2023-03-14T06:00:50.789Z,70.60
2023-03-14T06:03:34.152Z,70.40
2023-03-14T06:06:00.893Z,70.50
2023-03-14T06:08:28.120Z,70.90
2023-03-14T06:10:55.118Z,70.80
2023-03-14T06:13:27.954Z,71.30
2023-03-14T06:15:54.683Z,70.70
2023-03-14T06:18:21.470Z,70.80
2023-03-14T06:20:48.721Z,70.70
2023-03-14T06:23:23.505Z,70.70
2023-03-14T06:25:50.575Z,70.50
2023-03-14T06:28:18.079Z,70.40
2023-03-14T06:30:45.211Z,70.70
2023-03-14T06:33:13.641Z,70.70
2023-03-14T06:35:42.109Z,70.80
2023-03-14T06:38:08.850Z,70.40
2023-03-14T06:40:35.689Z,70.70
2023-03-14T06:43:07.538Z,70.70
2023-03-14T06:45:36.271Z,70.70
2023-03-14T06:48:04.281Z,70.60
2023-03-14T06:50:39.204Z,70.10
2023-03-14T06:53:05.982Z,70.30
2023-03-14T06:55:34.984Z,70.70
2023-03-14T06:58:01.711Z,70.40
2023-03-14T07:00:29.891Z,70.30
2023-03-14T07:02:57.620Z,70.30
2023-03-14T07:05:34.419Z,70.20
2023-03-14T07:08:01.218Z,70.30
2023-03-14T07:10:27.917Z,70.40
2023-03-14T07:12:54.940Z,70.30
2023-03-14T07:15:24.463Z,70.60
2023-03-14T07:17:56.470Z,70.80
2023-03-14T07:20:24.437Z,70.90
2023-03-14T07:22:51.675Z,70.90
2023-03-14T07:25:23.860Z,70.40
2023-03-14T07:27:50.578Z,70.60
2023-03-14T07:30:17.839Z,70.80
2023-03-14T07:32:45.751Z,70.50
2023-03-14T07:35:13.948Z,71.10
2023-03-14T07:37:42.026Z,70.50
2023-03-14T07:40:11.530Z,70.70
2023-03-14T07:42:38.363Z,70.90
2023-03-14T07:45:28.336Z,70.10
2023-03-14T07:47:58.341Z,70.00
2023-03-14T07:50:28.049Z,69.90
2023-03-14T07:52:56.542Z,69.90
2023-03-14T07:55:23.188Z,69.80
2023-03-14T07:57:49.823Z,70.10
2023-03-14T08:00:16.828Z,70.50
2023-03-14T08:02:46.583Z,72.30
2023-03-14T08:05:13.344Z,72.30
2023-03-14T08:07:40.020Z,72.70
2023-03-14T08:10:07.600Z,71.90
2023-03-14T08:12:34.265Z,72.40
2023-03-14T08:15:00.882Z,71.50
2023-03-14T08:17:28.854Z,71.80
2023-03-14T08:19:55.762Z,71.40
2023-03-14T08:22:22.627Z,71.60
2023-03-14T08:24:49.309Z,70.80
2023-03-14T08:27:16.088Z,70.60
2023-03-14T08:29:42.947Z,70.40
2023-03-14T08:32:09.962Z,71.20
2023-03-14T08:34:36.805Z,71.20
2023-03-14T08:37:08.644Z,71.20
2023-03-14T08:39:38.032Z,71.80
2023-03-14T08:42:04.718Z,71.60
2023-03-14T08:44:31.523Z,72.20
2023-03-14T08:46:58.394Z,72.50
2023-03-14T08:49:25.383Z,72.00
2023-03-14T08:51:52.065Z,72.40
2023-03-14T08:54:19.709Z,71.80
2023-03-14T08:56:48.997Z,72.60
2023-03-14T08:59:15.780Z,72.50
2023-03-14T09:01:42.420Z,72.30
2023-03-14T09:04:09.124Z,72.50
2023-03-14T09:06:36.438Z,71.90
2023-03-14T09:09:03.794Z,72.20
2023-03-14T09:11:30.507Z,72.30
2023-03-14T09:13:57.145Z,72.30
2023-03-14T09:16:23.933Z,71.40
2023-03-14T09:18:50.622Z,72.20
2023-03-14T09:21:17.252Z,72.30
2023-03-14T09:23:45.764Z,72.70
2023-03-14T09:26:13.371Z,73.10
2023-03-14T09:28:39.996Z,73.20
2023-03-14T09:31:08.997Z,73.20
2023-03-14T09:33:36.303Z,73.20
2023-03-14T09:36:04.054Z,73.00
2023-03-14T09:38:30.752Z,72.90
2023-03-14T09:40:59.880Z,72.70
2023-03-14T09:43:30.452Z,72.60
2023-03-14T09:45:59.382Z,72.40
2023-03-14T09:48:30.272Z,72.20
2023-03-14T09:51:00.329Z,71.90
2023-03-14T09:53:44.875Z,71.90
2023-03-14T09:56:19.845Z,71.90
2023-03-14T09:58:55.523Z,71.80
2023-03-14T10:01:27.446Z,71.80
2023-03-14T10:04:01.556Z,71.70
2023-03-14T10:06:31.537Z,71.50
2023-03-14T10:08:58.353Z,71.10
2023-03-14T10:11:25.710Z,71.30
2023-03-14T10:14:06.921Z,71.30
2023-03-14T10:16:36.972Z,71.20
2023-03-14T10:19:10.910Z,71.20
2023-03-14T10:21:55.064Z,71.20
2023-03-14T10:24:36.045Z,71.20
2023-03-14T10:27:18.163Z,71.20
2023-03-14T10:30:00.183Z,71.10
2023-03-14T10:32:37.723Z,71.00
2023-03-14T10:35:09.658Z,71.00
2023-03-14T10:37:36.623Z,71.10
2023-03-14T10:40:06.727Z,71.00
2023-03-14T10:42:39.982Z,70.90
2023-03-14T10:45:26.935Z,70.90
2023-03-14T10:47:53.631Z,70.80
2023-03-14T10:50:29.055Z,70.90
2023-03-14T10:53:02.558Z,70.90
2023-03-14T10:55:41.701Z,71.00
2023-03-14T10:58:25.192Z,70.90
2023-03-14T11:01:24.796Z,70.90
2023-03-14T11:04:16.028Z,70.90
2023-03-14T11:06:51.356Z,71.10
2023-03-14T11:09:56.704Z,71.00
2023-03-14T11:12:53.818Z,71.20
2023-03-14T11:15:20.406Z,71.10
2023-03-14T11:18:11.009Z,70.70
2023-03-14T11:21:13.764Z,71.10
2023-03-14T11:24:07.644Z,71.30
2023-03-14T11:26:44.664Z,71.50
2023-03-14T11:29:39.070Z,71.70
2023-03-14T11:32:20.301Z,71.60
2023-03-14T11:34:54.990Z,71.40
2023-03-14T11:37:32.899Z,71.50
2023-03-14T11:40:23.020Z,71.30
2023-03-14T11:43:16.695Z,71.30
2023-03-14T11:45:44.688Z,71.20
2023-03-14T11:48:32.174Z,71.30
2023-03-14T11:51:01.940Z,71.30
2023-03-14T11:53:44.402Z,71.30
2023-03-14T11:56:33.777Z,71.50
2023-03-14T11:59:07.182Z,71.30
2023-03-14T12:01:52.004Z,71.40
2023-03-14T12:04:33.430Z,71.40
2023-03-14T12:07:07.961Z,71.40
2023-03-14T12:09:35.769Z,71.30
2023-03-14T12:12:06.735Z,71.40
2023-03-14T12:14:36.271Z,71.30
2023-03-14T12:17:18.470Z,71.20
2023-03-14T12:19:45.443Z,71.30
2023-03-14T12:22:18.222Z,71.40
2023-03-14T12:24:54.500Z,71.30
2023-03-14T12:27:46.213Z,71.30
2023-03-14T12:30:30.528Z,71.30
2023-03-14T12:33:15.288Z,71.30
2023-03-14T12:35:49.673Z,71.30
2023-03-14T12:38:53.520Z,71.20
2023-03-14T12:41:28.851Z,71.30
2023-03-14T12:43:55.535Z,71.20
2023-03-14T12:46:27.863Z,71.30
2023-03-14T12:49:03.710Z,71.30
2023-03-14T12:51:42.416Z,71.20
2023-03-14T12:54:27.324Z,71.30
2023-03-14T12:57:15.152Z,71.40
2023-03-14T13:00:02.707Z,71.30
2023-03-14T13:02:30.472Z,71.40
2023-03-14T13:05:16.971Z,71.40
2023-03-14T13:07:44.218Z,71.40
2023-03-14T13:13:11.886Z,71.80
2023-03-14T13:15:44.205Z,72.00
2023-03-14T13:18:17.875Z,72.40
2023-03-14T13:20:55.386Z,72.50
2023-03-14T13:23:28.291Z,72.70
2023-03-14T13:25:55.697Z,72.60
2023-03-14T13:28:22.908Z,72.80
2023-03-14T13:30:52.163Z,72.80
2023-03-14T13:33:22.419Z,72.80
2023-03-14T13:35:55.827Z,72.70
2023-03-14T13:38:25.747Z,72.30
2023-03-14T13:41:00.037Z,72.20
2023-03-14T13:43:32.829Z,72.10
2023-03-14T13:46:28.807Z,72.00
2023-03-14T13:49:12.493Z,71.90
2023-03-14T13:51:40.761Z,72.00
2023-03-14T13:54:21.261Z,71.90
2023-03-14T13:56:48.734Z,71.90
2023-03-14T13:59:23.377Z,72.00
2023-03-14T14:01:51.272Z,72.20
2023-03-14T14:04:24.086Z,72.00
2023-03-14T14:06:52.730Z,70.90
2023-03-14T14:09:24.937Z,71.80
2023-03-14T14:12:21.494Z,71.40
2023-03-14T14:15:15.177Z,71.60
2023-03-14T14:17:53.900Z,71.60
2023-03-14T14:20:35.955Z,71.30
2023-03-14T14:23:05.918Z,71.40
2023-03-14T14:25:33.219Z,71.20
2023-03-14T14:28:00.451Z,71.40
2023-03-14T14:30:34.801Z,71.50
2023-03-14T14:33:19.262Z,71.40
2023-03-14T14:35:53.458Z,71.40
2023-03-14T14:38:21.231Z,71.30
2023-03-14T14:40:51.487Z,71.30
2023-03-14T14:43:24.583Z,71.40
2023-03-14T14:45:54.479Z,71.50
2023-03-14T14:48:24.202Z,71.40
2023-03-14T14:51:02.902Z,71.50
2023-03-14T14:53:37.597Z,71.40
2023-03-14T14:56:39.907Z,71.40
2023-03-14T14:59:19.447Z,71.40
2023-03-14T15:01:48.423Z,71.40
2023-03-14T15:04:16.125Z,71.30
2023-03-14T15:06:46.538Z,71.30
2023-03-14T15:09:13.615Z,71.20
2023-03-14T15:11:40.292Z,71.30
2023-03-14T15:14:07.897Z,71.20
2023-03-14T15:16:34.826Z,71.30
2023-03-14T15:19:18.025Z,71.30
2023-03-14T15:21:50.115Z,71.40
2023-03-14T15:24:16.962Z,71.40
2023-03-14T15:26:45.249Z,71.40
2023-03-14T15:29:13.421Z,71.30
2023-03-14T15:31:41.452Z,71.30
2023-03-14T15:34:09.017Z,71.90
2023-03-14T15:36:38.898Z,71.70
2023-03-14T15:39:07.271Z,71.60
2023-03-14T15:41:34.284Z,71.40
2023-03-14T15:44:01.104Z,71.40
2023-03-14T15:46:29.900Z,72.20
2023-03-14T15:48:57.602Z,71.90
2023-03-14T15:51:24.267Z,71.90
2023-03-14T15:53:52.514Z,71.80
2023-03-14T15:56:20.533Z,71.80
2023-03-14T15:58:47.478Z,71.80
2023-03-14T16:01:16.737Z,71.70
2023-03-14T16:03:45.339Z,71.80
2023-03-14T16:06:13.166Z,71.90
2023-03-14T16:08:39.838Z,71.90
2023-03-14T16:11:06.520Z,72.00
2023-03-14T16:13:33.293Z,72.00
2023-03-14T16:16:02.659Z,72.00
2023-03-14T16:18:32.139Z,72.00
2023-03-14T16:21:01.706Z,72.00
2023-03-14T16:23:29.477Z,71.90
2023-03-14T16:25:57.055Z,71.90
2023-03-14T16:28:24.419Z,71.80
2023-03-14T16:30:51.072Z,71.80
2023-03-14T16:33:18.271Z,71.70
2023-03-14T16:35:55.423Z,71.70
2023-03-14T16:38:23.523Z,71.70
2023-03-14T16:41:05.935Z,71.70
2023-03-14T16:43:33.994Z,71.70
2023-03-14T16:46:01.498Z,71.70
2023-03-14T16:48:28.535Z,71.70
2023-03-14T16:50:55.577Z,72.20
2023-03-14T16:53:23.045Z,71.50
2023-03-14T16:55:50.748Z,71.20
2023-03-14T16:58:21.304Z,71.00
2023-03-14T17:00:49.184Z,71.10
2023-03-14T17:03:17.385Z,71.10
2023-03-14T17:05:49.398Z,70.90
2023-03-14T17:08:17.734Z,70.90
2023-03-14T17:10:44.835Z,71.00
2023-03-14T17:13:12.241Z,71.00
2023-03-14T17:15:38.951Z,70.80
2023-03-14T17:18:06.523Z,70.90
2023-03-14T17:20:33.215Z,70.90
2023-03-14T17:22:59.861Z,70.70
2023-03-14T17:25:26.531Z,70.90
2023-03-14T17:27:53.192Z,70.70
2023-03-14T17:30:20.022Z,70.70
2023-03-14T17:32:46.737Z,70.60
2023-03-14T17:35:13.438Z,70.70
2023-03-14T17:37:41.052Z,70.70
2023-03-14T17:40:08.361Z,70.70
2023-03-14T17:42:35.003Z,70.60
2023-03-14T17:45:01.709Z,70.60
2023-03-14T17:47:28.343Z,70.30
2023-03-14T17:49:55.270Z,70.40
2023-03-14T17:52:21.971Z,70.30
2023-03-14T17:54:48.634Z,70.20
2023-03-14T17:57:15.332Z,70.30
2023-03-14T17:59:42.784Z,70.20
2023-03-14T18:02:11.073Z,70.10
2023-03-14T18:04:38.040Z,70.00
2023-03-14T18:07:04.743Z,70.10
2023-03-14T18:09:31.510Z,69.90
2023-03-14T18:12:07.779Z,69.90
2023-03-14T18:14:38.866Z,69.90
2023-03-14T18:17:06.026Z,69.80
2023-03-14T18:19:32.877Z,69.80
2023-03-14T18:21:59.503Z,69.70
2023-03-14T18:24:28.713Z,69.60
2023-03-14T18:26:55.748Z,69.60
2023-03-14T18:29:22.506Z,69.50
2023-03-14T18:31:49.280Z,69.50
2023-03-14T18:34:16.671Z,69.30
2023-03-14T18:36:43.492Z,69.30
2023-03-14T18:39:10.331Z,69.30
2023-03-14T18:41:37.417Z,69.30
2023-03-14T18:44:04.618Z,69.30
2023-03-14T18:46:31.878Z,69.20
2023-03-14T18:49:03.838Z,69.10
2023-03-14T18:51:33.070Z,69.00
2023-03-14T18:54:09.430Z,69.00
2023-03-14T18:56:39.257Z,66.80
2023-03-14T18:59:06.621Z,67.80
2023-03-14T19:01:34.206Z,68.20
2023-03-14T19:04:01.687Z,68.30
2023-03-14T19:06:31.906Z,68.30
2023-03-14T19:08:58.947Z,68.30
2023-03-14T19:11:26.698Z,68.30
2023-03-14T19:13:54.790Z,68.20
2023-03-14T19:16:27.747Z,68.10
2023-03-14T19:18:55.419Z,68.10
2023-03-14T19:21:31.514Z,68.10
2023-03-14T19:23:58.354Z,68.00
2023-03-14T19:26:25.097Z,68.50
2023-03-14T19:28:54.929Z,67.90
2023-03-14T19:31:21.852Z,67.90
2023-03-14T19:33:48.836Z,67.80
2023-03-14T19:36:27.350Z,67.80
2023-03-14T19:38:54.281Z,67.70
2023-03-14T19:41:23.170Z,67.70
2023-03-14T19:43:50.327Z,67.70
2023-03-14T19:46:17.331Z,67.60
2023-03-14T19:48:45.505Z,67.50
2023-03-14T19:51:13.526Z,67.50
2023-03-14T19:53:41.779Z,67.50
2023-03-14T19:56:09.599Z,67.50
2023-03-14T19:58:38.173Z,67.40
2023-03-14T20:01:05.944Z,67.40
2023-03-14T20:03:33.568Z,67.40
2023-03-14T20:06:05.068Z,67.40
2023-03-14T20:08:31.704Z,67.30
2023-03-14T20:10:58.407Z,67.30
2023-03-14T20:13:25.268Z,67.30
2023-03-14T20:15:53.009Z,67.20
2023-03-14T20:18:19.820Z,67.20
2023-03-14T20:20:46.503Z,67.10
2023-03-14T20:23:14.407Z,67.20
2023-03-14T20:25:41.487Z,67.10
2023-03-14T20:28:08.512Z,67.10
2023-03-14T20:30:35.264Z,67.10
2023-03-14T20:33:04.991Z,67.10
2023-03-14T20:35:31.797Z,67.00
2023-03-14T20:37:58.488Z,67.60
2023-03-14T20:40:28.545Z,67.00
2023-03-14T20:42:55.958Z,67.00
2023-03-14T20:45:22.984Z,67.00
2023-03-14T20:47:49.988Z,66.90
2023-03-14T20:50:16.835Z,66.90
2023-03-14T20:52:43.685Z,66.90
2023-03-14T20:55:10.830Z,66.90
2023-03-14T20:57:37.465Z,66.90
2023-03-14T21:00:07.443Z,66.90
2023-03-14T21:02:34.951Z,66.90
2023-03-14T21:05:01.938Z,66.80
2023-03-14T21:07:34.370Z,66.80
2023-03-14T21:10:01.081Z,66.80
2023-03-14T21:12:27.741Z,66.80
2023-03-14T21:14:54.400Z,66.90
2023-03-14T21:17:21.082Z,66.80
2023-03-14T21:19:47.762Z,66.90
2023-03-14T21:22:18.331Z,66.80
2023-03-14T21:24:46.010Z,66.80
2023-03-14T21:27:12.714Z,66.80
2023-03-14T21:29:39.461Z,66.80
2023-03-14T21:32:06.254Z,66.80
2023-03-14T21:34:33.718Z,66.80
2023-03-14T21:37:00.537Z,66.80
2023-03-14T21:39:27.277Z,66.80
2023-03-14T21:41:53.942Z,66.80
2023-03-14T21:44:21.731Z,66.80
2023-03-14T21:46:49.490Z,66.80
2023-03-14T21:49:17.134Z,66.80
2023-03-14T21:51:45.966Z,66.80
2023-03-14T21:54:14.466Z,66.80
2023-03-14T21:56:42.220Z,66.80
2023-03-14T21:59:09.473Z,66.90
2023-03-14T22:01:36.448Z,67.00
2023-03-14T22:04:03.211Z,67.10
2023-03-14T22:06:29.887Z,67.20
2023-03-14T22:08:56.608Z,67.30
2023-03-14T22:11:24.395Z,67.40
2023-03-14T22:13:51.181Z,67.50
2023-03-14T22:16:17.864Z,67.60
2023-03-14T22:18:45.427Z,67.70
2023-03-14T22:21:12.170Z,67.70
2023-03-14T22:23:39.111Z,67.70
2023-03-14T22:26:05.762Z,67.80
2023-03-14T22:28:32.459Z,67.80
2023-03-14T22:31:00.420Z,67.90
2023-03-14T22:33:28.914Z,67.90
2023-03-14T22:35:55.612Z,68.00
2023-03-14T22:38:22.513Z,67.90
2023-03-14T22:40:49.167Z,67.90
2023-03-14T22:43:15.909Z,68.00
2023-03-14T22:45:42.950Z,68.00
2023-03-14T22:48:09.996Z,68.00
2023-03-14T22:50:40.292Z,68.00
2023-03-14T22:53:07.367Z,68.00
2023-03-14T22:55:34.111Z,68.00
2023-03-14T22:58:01.030Z,68.00
2023-03-14T23:00:29.311Z,67.90
2023-03-14T23:02:56.051Z,67.90
2023-03-14T23:05:22.778Z,68.00
2023-03-14T23:07:49.471Z,67.90
2023-03-14T23:10:16.644Z,67.90
2023-03-14T23:12:45.222Z,67.80
2023-03-14T23:15:15.503Z,67.80
2023-03-14T23:17:43.752Z,67.80
2023-03-14T23:20:12.199Z,67.80
2023-03-14T23:22:38.842Z,67.80
2023-03-14T23:25:06.100Z,67.70
2023-03-14T23:27:33.084Z,67.80
2023-03-14T23:29:59.841Z,67.60
2023-03-14T23:32:26.644Z,67.70
2023-03-14T23:34:53.388Z,67.60
2023-03-14T23:37:20.020Z,67.60
2023-03-14T23:39:46.695Z,67.60
2023-03-14T23:42:13.578Z,67.60
2023-03-14T23:44:40.748Z,67.60
2023-03-14T23:47:08.061Z,67.50
2023-03-14T23:49:34.829Z,67.50
2023-03-14T23:52:01.964Z,67.50
2023-03-14T23:54:28.655Z,67.40
2023-03-14T23:56:55.309Z,67.40
2023-03-14T23:59:21.966Z,67.40
